createdAt,value
2023-08-12T00:04:01.353Z,24.34
2023-08-12T00:08:58.228Z,24.55
2023-08-12T00:13:54.969Z,24.48
2023-08-12T00:18:52.486Z,24.40
2023-08-12T00:23:50.330Z,24.32
2023-08-12T00:28:50.742Z,24.21
2023-08-12T00:33:47.628Z,24.15
2023-08-12T00:38:45.141Z,23.89
2023-08-12T00:43:41.928Z,23.70
2023-08-12T00:48:38.927Z,23.96
2023-08-12T00:53:36.141Z,23.91
2023-08-12T00:58:33.644Z,23.91
2023-08-12T01:03:31.368Z,23.93
2023-08-12T01:08:31.182Z,23.94
2023-08-12T01:13:33.583Z,23.91
2023-08-12T01:18:30.757Z,23.77
2023-08-12T01:23:28.506Z,23.91
2023-08-12T01:28:25.398Z,23.70
2023-08-12T01:33:29.976Z,23.76
2023-08-12T01:38:29.631Z,23.66
2023-08-12T01:43:27.185Z,23.80
2023-08-12T01:48:24.134Z,23.71
2023-08-12T01:53:20.957Z,23.88
2023-08-12T01:58:18.415Z,23.88
2023-08-12T02:03:15.375Z,23.81
2023-08-12T02:08:12.155Z,23.94
2023-08-12T02:13:09.320Z,23.83
2023-08-12T02:18:07.047Z,23.93
2023-08-12T02:23:04.979Z,23.91
2023-08-12T02:28:01.739Z,23.86
2023-08-12T02:32:58.654Z,23.87
2023-08-12T02:37:56.245Z,23.87
2023-08-12T02:42:53.028Z,23.87
2023-08-12T02:47:49.903Z,23.83
2023-08-12T02:52:46.930Z,23.77
2023-08-12T02:57:44.740Z,23.71
2023-08-12T03:02:43.466Z,23.65
2023-08-12T03:07:40.617Z,23.67
2023-08-12T03:12:37.939Z,23.63
2023-08-12T03:17:35.909Z,23.54
2023-08-12T03:22:33.735Z,23.59
2023-08-12T03:27:30.701Z,23.48
2023-08-12T03:32:27.609Z,23.40
2023-08-12T03:37:26.906Z,23.48
2023-08-12T03:42:24.716Z,23.47
2023-08-12T03:47:24.226Z,23.44
2023-08-12T03:52:21.503Z,23.45
2023-08-12T03:57:19.002Z,23.50
2023-08-12T04:02:16.176Z,23.57
2023-08-12T04:07:13.518Z,23.69
2023-08-12T04:12:10.696Z,23.79
2023-08-12T04:17:08.220Z,23.62
2023-08-12T04:22:05.192Z,23.68
2023-08-12T04:27:03.468Z,24.13
2023-08-12T04:32:00.749Z,23.76
2023-08-12T04:36:58.206Z,24.28
2023-08-12T04:41:55.236Z,24.53
2023-08-12T04:46:52.411Z,24.68
2023-08-12T04:51:52.615Z,24.80
2023-08-12T04:56:50.580Z,24.96
2023-08-12T05:02:02.314Z,24.96
2023-08-12T05:07:01.954Z,25.09
2023-08-12T05:11:59.797Z,25.51
2023-08-12T05:16:57.069Z,25.54
2023-08-12T05:21:54.006Z,25.52
2023-08-12T05:26:51.117Z,25.85
2023-08-12T05:31:48.740Z,26.01
2023-08-12T05:36:45.779Z,26.19
2023-08-12T05:41:42.672Z,28.69
2023-08-12T05:46:39.774Z,30.99
2023-08-12T18:49:25.425Z,28.41
2023-08-12T18:54:22.356Z,28.29
2023-08-12T18:59:20.124Z,28.11
2023-08-12T19:04:20.922Z,28.28
2023-08-12T19:09:19.203Z,28.14
2023-08-12T19:14:16.122Z,28.08
2023-08-12T19:19:13.044Z,28.03
2023-08-12T19:24:09.838Z,27.98
2023-08-12T19:29:07.462Z,27.74
2023-08-12T19:34:04.466Z,27.93
2023-08-12T19:39:01.355Z,27.82
2023-08-12T19:43:59.527Z,27.63
2023-08-12T19:48:57.052Z,27.55
2023-08-12T19:53:55.490Z,27.27
2023-08-12T19:58:52.305Z,26.87
2023-08-12T20:03:49.195Z,26.64
2023-08-12T20:08:46.819Z,26.53
2023-08-12T20:13:43.644Z,26.33
2023-08-12T20:18:40.497Z,26.25
2023-08-12T20:23:37.384Z,26.44
2023-08-12T20:28:34.991Z,26.46
2023-08-12T20:33:32.192Z,26.54
2023-08-12T20:38:30.517Z,26.51
2023-08-12T20:43:27.321Z,26.60
2023-08-12T20:48:24.925Z,26.31
2023-08-12T20:53:21.777Z,26.50
2023-08-12T20:58:18.684Z,26.62
2023-08-12T21:03:15.649Z,26.22
2023-08-12T21:08:13.124Z,26.59
2023-08-12T21:13:10.038Z,26.55
2023-08-12T21:18:07.691Z,26.51
2023-08-12T21:23:05.152Z,26.45
2023-08-12T21:28:02.741Z,26.35
2023-08-12T21:32:59.699Z,26.22
2023-08-12T21:37:57.304Z,26.18
2023-08-12T21:42:54.159Z,26.19
2023-08-12T21:47:51.789Z,26.16
2023-08-12T21:52:48.587Z,26.07
2023-08-12T21:57:45.387Z,26.09
2023-08-12T22:02:42.226Z,26.04
2023-08-12T22:07:39.751Z,25.92
2023-08-12T22:12:36.530Z,25.88
2023-08-12T22:17:33.398Z,25.86
2023-08-12T22:22:30.237Z,25.57
2023-08-12T22:27:27.852Z,25.53
2023-08-12T22:32:24.739Z,24.97
2023-08-12T22:37:21.526Z,25.24
2023-08-12T22:42:18.334Z,25.01
2023-08-12T22:47:15.856Z,24.93
2023-08-12T22:52:12.922Z,25.07
2023-08-12T22:57:10.729Z,25.00
2023-08-12T23:02:07.558Z,24.83
2023-08-12T23:07:05.408Z,24.89
2023-08-12T23:12:02.234Z,24.65
2023-08-12T23:16:59.093Z,24.39
2023-08-12T23:21:56.256Z,24.33
2023-08-12T23:26:53.743Z,24.33
2023-08-12T23:31:50.540Z,24.44
2023-08-12T23:36:47.441Z,24.21
2023-08-12T23:41:44.321Z,24.61
2023-08-12T23:46:45.034Z,24.61
2023-08-12T23:51:42.094Z,24.49
2023-08-12T23:56:40.890Z,24.45
